Main page
METAR-TAF:

METAR-TAF

Airports :

Trat Airport

Trat, Thailand

latitude: 12-16-28N, longitude: 102-19-08E, elevation: 32 m

Current weather observation

The report was made 6 hours and 54 minutes ago, at 11:00 UTC
Wind 13 kt from the Northeast
Temperature 27°C
Humidity 51%
Pressure 1015 hPa
Visibility: 8000 m

METAR: VTBO 061100Z 05013KT 8000 NSC 27/16 Q1015

Time: 00:54 (17:54 UTC)

Forecast

The report was made 54 minutes ago, at 17:00 UTC
Forecast valid from 06 at 18 UTC to 07 at 18 UTC
Wind kt from the North
Visibility: 6000 m
Becoming
from 07 at 01 UTC to 07 at 03 UTC
Wind 10 kt from the Northeast
Visibility: 8000 m

TAF: VTBO 061700Z 0618/0718 00000KT 6000 NSC BECMG 0701/0703 05010KT 8000

Weather observations and forecasts of more than 4000 airports (METAR and TAF reports).

The available stations are represented by yellow and red dots on the map.

Hover mouse over dot to see the name of the station.

Then click to see weather observations and forecasts.

To change the map : click on the green buttons with a black cross to zoom in, on the green button with a dash to zoom out, or on the green arrows for adjacent maps.


METAR-TAF: